createdAt,value
2023-02-11T00:01:00.634Z,99931.63
2023-02-11T00:03:27.667Z,99928.44
2023-02-11T00:06:03.085Z,99922.56
2023-02-11T00:08:30.155Z,99930.53
2023-02-11T00:10:58.276Z,99923.16
2023-02-11T00:13:25.893Z,99937.09
2023-02-11T00:15:53.637Z,99939.38
2023-02-11T00:18:20.700Z,99884.31
2023-02-11T00:20:47.662Z,99920.91
2023-02-11T00:23:15.216Z,99862.78
2023-02-11T00:25:44.289Z,99940.53
2023-02-11T00:28:12.005Z,99921.50
2023-02-11T00:30:41.391Z,99927.47
2023-02-11T00:33:09.046Z,99922.44
2023-02-11T00:35:38.803Z,99939.72
2023-02-11T00:38:08.169Z,99937.59
2023-02-11T00:40:35.198Z,99917.25
2023-02-11T00:43:03.906Z,99900.25
2023-02-11T00:45:31.004Z,99872.34
2023-02-11T00:47:58.295Z,99944.53
2023-02-11T00:50:25.346Z,99933.69
2023-02-11T00:52:52.364Z,99952.53
2023-02-11T00:55:19.460Z,99930.31
2023-02-11T00:57:46.704Z,99952.09
2023-02-11T01:00:17.115Z,99949.66
2023-02-11T01:02:45.051Z,99941.47
2023-02-11T01:05:12.103Z,99950.00
2023-02-11T01:07:39.197Z,99939.84
2023-02-11T01:10:06.592Z,99959.91
2023-02-11T01:12:36.264Z,99964.16
2023-02-11T01:15:04.855Z,99967.41
2023-02-11T01:17:34.248Z,99965.72
2023-02-11T01:20:09.417Z,99967.69
2023-02-11T01:22:39.651Z,99945.00
2023-02-11T01:25:07.975Z,99965.19
2023-02-11T01:27:36.798Z,99966.66
2023-02-11T01:30:06.721Z,99965.78
2023-02-11T01:32:34.228Z,99989.00
2023-02-11T01:35:01.238Z,99986.44
2023-02-11T01:37:33.494Z,99981.97
2023-02-11T01:40:02.266Z,99953.97
2023-02-11T01:42:31.395Z,99955.03
2023-02-11T01:45:01.035Z,99976.00
2023-02-11T01:47:28.141Z,99989.31
2023-02-11T01:50:01.067Z,99971.78
2023-02-11T01:52:39.884Z,99987.25
2023-02-11T01:55:31.661Z,99980.41
2023-02-11T01:58:04.713Z,99967.59
2023-02-11T02:00:39.153Z,99978.75
2023-02-11T02:03:18.164Z,99991.69
2023-02-11T02:06:10.993Z,99990.59
2023-02-11T02:08:41.977Z,99988.94
2023-02-11T02:11:10.805Z,99976.91
2023-02-11T02:13:40.950Z,99992.50
2023-02-11T02:16:16.612Z,99984.16
2023-02-11T02:19:20.646Z,99985.09
2023-02-11T02:22:06.041Z,99987.78
2023-02-11T02:24:56.820Z,99991.56
2023-02-11T02:27:51.533Z,99985.69
2023-02-11T02:30:24.734Z,99983.88
2023-02-11T02:33:21.704Z,99982.19
2023-02-11T02:36:09.419Z,99985.13
2023-02-11T02:39:01.050Z,99985.75
2023-02-11T02:41:34.528Z,99983.28
2023-02-11T02:44:02.053Z,99977.00
2023-02-11T02:46:32.238Z,99991.31
2023-02-11T02:49:00.178Z,99975.13
2023-02-11T02:51:33.189Z,99981.66
2023-02-11T02:54:18.860Z,99989.84
2023-02-11T02:57:08.799Z,99890.41
2023-02-11T02:59:41.482Z,99982.59
2023-02-11T03:02:33.361Z,99965.94
2023-02-11T03:05:12.396Z,99972.59
2023-02-11T03:07:53.933Z,99974.84
2023-02-11T03:10:27.057Z,99953.69
2023-02-11T03:12:56.132Z,99943.50
2023-02-11T03:15:26.908Z,99956.91
2023-02-11T03:17:58.665Z,99954.34
2023-02-11T03:20:28.390Z,99968.53
2023-02-11T03:23:16.476Z,99962.72
2023-02-11T03:25:53.111Z,99980.31
2023-02-11T03:28:29.585Z,99986.13
2023-02-11T03:31:10.525Z,99975.13
2023-02-11T03:33:44.208Z,99914.22
2023-02-11T03:36:18.282Z,99973.09
2023-02-11T03:38:54.076Z,99947.72
2023-02-11T03:41:24.769Z,99946.03
2023-02-11T03:43:57.193Z,99955.28
2023-02-11T03:46:31.514Z,99968.13
2023-02-11T03:49:03.924Z,99985.50
2023-02-11T03:51:32.614Z,99970.41
2023-02-11T03:54:03.684Z,99939.31
2023-02-11T03:56:33.445Z,99975.25
2023-02-11T03:59:00.547Z,99975.72
2023-02-11T04:01:27.716Z,99967.09
2023-02-11T04:03:54.772Z,99954.41
2023-02-11T04:06:21.757Z,99957.13
2023-02-11T04:08:48.747Z,99969.97
2023-02-11T04:11:15.726Z,99941.44
2023-02-11T04:13:42.701Z,99960.75
2023-02-11T04:16:09.735Z,99965.06
2023-02-11T04:18:36.733Z,99946.53
2023-02-11T04:21:03.931Z,99971.66
2023-02-11T04:23:30.933Z,99940.72
2023-02-11T04:25:57.937Z,99959.28
2023-02-11T04:28:25.013Z,99948.06
2023-02-11T04:30:52.051Z,99951.56
2023-02-11T04:33:19.100Z,99961.91
2023-02-11T04:35:46.259Z,99959.44
2023-02-11T04:38:14.137Z,99957.69
2023-02-11T04:40:41.410Z,99957.09
2023-02-11T04:43:08.574Z,99948.19
2023-02-11T04:45:35.572Z,99944.19
2023-02-11T04:48:03.912Z,99934.78
2023-02-11T04:50:31.240Z,99960.34
2023-02-11T04:52:58.255Z,99957.41
2023-02-11T04:55:25.269Z,99945.28
2023-02-11T04:57:52.298Z,99955.84
2023-02-11T05:00:19.327Z,99967.31
2023-02-11T05:02:46.342Z,99973.28
2023-02-11T05:05:13.298Z,99967.97
2023-02-11T05:07:40.346Z,99975.53
2023-02-11T05:10:07.448Z,99972.28
2023-02-11T05:12:34.469Z,99973.78
2023-02-11T05:15:01.468Z,99961.44
2023-02-11T05:17:31.116Z,99964.06
2023-02-11T05:19:58.120Z,99964.06
2023-02-11T05:22:25.133Z,99972.91
2023-02-11T05:24:52.124Z,99966.41
2023-02-11T05:27:19.118Z,99972.41
2023-02-11T05:29:46.300Z,99973.06
2023-02-11T05:32:13.330Z,99964.47
2023-02-11T05:34:40.341Z,99971.09
2023-02-11T05:37:07.404Z,99971.81
2023-02-11T05:39:34.399Z,99964.16
2023-02-11T05:42:01.418Z,99957.63
2023-02-11T05:44:28.440Z,99971.22
2023-02-11T05:46:55.510Z,99966.41
2023-02-11T05:49:22.540Z,99964.94
2023-02-11T05:51:49.522Z,99939.47
2023-02-11T05:54:16.940Z,99969.44
2023-02-11T05:56:45.006Z,99876.22
2023-02-11T05:59:14.648Z,99960.91
2023-02-11T06:01:41.873Z,99962.97
2023-02-11T06:04:08.860Z,99967.75
2023-02-11T06:06:35.965Z,99978.31
2023-02-11T06:09:03.388Z,99978.63
2023-02-11T06:11:30.649Z,99975.69
2023-02-11T06:13:57.706Z,99968.34
2023-02-11T06:16:24.917Z,99970.56
2023-02-11T06:18:51.968Z,99949.16
2023-02-11T06:21:19.024Z,99967.72
2023-02-11T06:23:46.018Z,99955.69
2023-02-11T06:26:22.268Z,99961.47
2023-02-11T06:28:49.877Z,99776.97
2023-02-11T06:31:17.677Z,99960.84
2023-02-11T06:33:44.789Z,99961.31
2023-02-11T06:36:18.273Z,99965.59
2023-02-11T06:38:45.771Z,99978.66
2023-02-11T06:41:17.816Z,99948.47
2023-02-11T06:43:44.846Z,99955.28
2023-02-11T06:46:12.201Z,99950.19
2023-02-11T06:48:39.270Z,99883.06
2023-02-11T06:51:09.600Z,99955.47
2023-02-11T06:53:38.740Z,99943.69
2023-02-11T06:56:08.429Z,99954.22
2023-02-11T06:58:36.117Z,99961.16
2023-02-11T07:01:10.088Z,99953.66
2023-02-11T07:03:39.148Z,99956.06
2023-02-11T07:06:08.233Z,99966.13
2023-02-11T07:08:36.397Z,99956.44
2023-02-11T07:11:11.415Z,99965.78
2023-02-11T07:13:38.529Z,99960.50
2023-02-11T07:16:11.017Z,99959.00
2023-02-11T07:18:38.181Z,99966.84
2023-02-11T07:21:07.146Z,99944.31
2023-02-11T07:23:35.521Z,99960.50
2023-02-11T07:26:10.805Z,99954.66
2023-02-11T07:28:39.076Z,99940.34
2023-02-11T07:31:18.439Z,99874.69
2023-02-11T07:33:46.032Z,99942.47
2023-02-11T07:36:15.195Z,99942.47
2023-02-11T07:38:43.569Z,99945.00
2023-02-11T07:41:12.767Z,99947.66
2023-02-11T07:43:40.386Z,99881.16
2023-02-11T07:46:11.507Z,99918.22
2023-02-11T07:48:39.175Z,99936.84
2023-02-11T07:51:08.975Z,99928.78
2023-02-11T07:53:36.417Z,99892.75
2023-02-11T07:56:05.625Z,99915.97
2023-02-11T07:58:33.482Z,99931.16
2023-02-11T08:01:06.554Z,99880.41
2023-02-11T08:03:35.448Z,99934.94
2023-02-11T08:06:07.159Z,99914.16
2023-02-11T08:08:34.155Z,99922.56
2023-02-11T08:11:22.577Z,99920.97
2023-02-11T08:13:50.507Z,99917.78
2023-02-11T08:16:28.183Z,99912.66
2023-02-11T08:19:00.194Z,99911.81
2023-02-11T08:21:28.166Z,99896.78
2023-02-11T08:23:56.169Z,99902.25
2023-02-11T08:26:29.120Z,99910.25
2023-02-11T08:28:57.674Z,99914.50
2023-02-11T08:31:28.105Z,99910.16
2023-02-11T08:33:58.058Z,99898.97
2023-02-11T08:36:28.675Z,99905.34
2023-02-11T08:39:12.123Z,99875.03
2023-02-11T08:41:45.456Z,99862.47
2023-02-11T08:44:12.905Z,99880.44
2023-02-11T08:46:40.045Z,99866.81
2023-02-11T08:49:07.056Z,99867.09
2023-02-11T08:51:34.290Z,99876.78
2023-02-11T08:54:02.213Z,99863.47
2023-02-11T08:56:31.549Z,99869.34
2023-02-11T08:58:58.806Z,99867.56
2023-02-11T09:01:28.820Z,99862.59
2023-02-11T09:03:57.103Z,99807.22
2023-02-11T09:06:25.711Z,99796.66
2023-02-11T09:08:55.068Z,99837.63
2023-02-11T09:11:27.583Z,99805.22
2023-02-11T09:13:54.867Z,99744.53
2023-02-11T09:16:26.331Z,99805.50
2023-02-11T09:18:53.917Z,99800.28
2023-02-11T09:21:21.044Z,99796.84
2023-02-11T09:23:48.440Z,99793.16
2023-02-11T09:26:18.435Z,99773.31
2023-02-11T09:28:45.866Z,99743.41
2023-02-11T09:31:18.396Z,99758.44
2023-02-11T09:33:48.209Z,99686.50
2023-02-11T09:36:22.478Z,99756.34
2023-02-11T09:38:50.237Z,99757.47
2023-02-11T09:41:23.175Z,99757.25
2023-02-11T09:43:54.885Z,99754.38
2023-02-11T09:46:24.354Z,99755.41
2023-02-11T09:48:54.300Z,99760.19
2023-02-11T09:51:36.284Z,99726.50
2023-02-11T09:54:13.982Z,99750.63
2023-02-11T09:56:40.981Z,99735.75
2023-02-11T09:59:15.358Z,99742.69
2023-02-11T10:01:50.565Z,99717.69
2023-02-11T10:04:36.453Z,99710.78
2023-02-11T10:07:28.903Z,99736.56
2023-02-11T10:10:29.706Z,99739.09
2023-02-11T10:13:25.977Z,99714.78
2023-02-11T10:16:17.220Z,99730.09
2023-02-11T10:18:56.674Z,99701.59
2023-02-11T10:21:38.575Z,99680.34
2023-02-11T10:24:12.549Z,99715.97
2023-02-11T10:26:40.949Z,99687.28
2023-02-11T10:29:30.907Z,99705.97
2023-02-11T10:31:59.594Z,99695.75
2023-02-11T10:34:26.724Z,99684.66
2023-02-11T10:36:53.922Z,99676.66
2023-02-11T10:39:23.942Z,99664.72
2023-02-11T10:41:56.553Z,99670.84
2023-02-11T10:44:31.354Z,99672.38
2023-02-11T10:47:04.665Z,99662.31
2023-02-11T10:49:38.025Z,99661.53
2023-02-11T10:52:26.298Z,99656.97
2023-02-11T10:55:27.925Z,99650.97
2023-02-11T10:57:55.065Z,99632.47
2023-02-11T11:00:39.264Z,99623.53
2023-02-11T11:03:25.615Z,99637.31
2023-02-11T11:06:03.997Z,99627.91
2023-02-11T11:08:48.414Z,99635.03
2023-02-11T11:11:20.871Z,99618.88
2023-02-11T11:13:53.909Z,99611.53
2023-02-11T11:16:22.811Z,99612.66
2023-02-11T11:18:53.172Z,99608.69
2023-02-11T11:21:22.128Z,99607.94
2023-02-11T11:23:55.950Z,99600.03
2023-02-11T11:26:24.736Z,99574.16
2023-02-11T11:28:54.778Z,99577.66
2023-02-11T11:31:33.812Z,99581.19
2023-02-11T11:34:22.110Z,99553.88
2023-02-11T11:36:50.652Z,99565.56
2023-02-11T11:39:33.756Z,99527.00
2023-02-11T11:42:05.482Z,99537.84
2023-02-11T11:44:38.367Z,99542.75
2023-02-11T11:47:11.250Z,99525.22
2023-02-11T11:49:42.083Z,99514.91
2023-02-11T11:52:27.265Z,99519.88
2023-02-11T11:55:03.059Z,99518.63
2023-02-11T11:57:31.473Z,99494.22
2023-02-11T11:59:58.861Z,99504.38
2023-02-11T12:02:47.419Z,99509.66
2023-02-11T12:05:33.393Z,99498.78
2023-02-11T12:08:29.234Z,99491.63
2023-02-11T12:11:14.076Z,99490.75
2023-02-11T12:13:50.156Z,99486.53
2023-02-11T12:16:23.536Z,99470.00
2023-02-11T12:18:56.363Z,99479.78
2023-02-11T12:21:41.937Z,99476.28
2023-02-11T12:24:17.638Z,99462.28
2023-02-11T12:26:58.145Z,99401.47
2023-02-11T12:29:35.194Z,99488.81
2023-02-11T12:32:04.831Z,99467.16
2023-02-11T12:35:06.302Z,99462.09
2023-02-11T12:37:50.258Z,99463.47
2023-02-11T12:40:31.551Z,99471.06
2023-02-11T12:43:20.389Z,99467.31
2023-02-11T12:46:10.042Z,99435.94
2023-02-11T12:48:45.952Z,99447.59
2023-02-11T12:51:37.308Z,99450.94
2023-02-11T12:54:13.112Z,99438.25
2023-02-11T12:56:42.960Z,99423.81
2023-02-11T12:59:29.308Z,99414.72
2023-02-11T13:01:59.832Z,99416.41
2023-02-11T13:04:37.790Z,99403.09
2023-02-11T13:07:15.999Z,99390.97
2023-02-11T13:09:50.750Z,99398.44
2023-02-11T13:12:37.034Z,99357.66
2023-02-11T13:15:12.799Z,99370.84
2023-02-11T13:18:05.721Z,99377.88
2023-02-11T13:20:45.557Z,99360.22
2023-02-11T13:23:37.498Z,99359.34
2023-02-11T13:26:16.255Z,99306.38
2023-02-11T13:29:06.105Z,99354.59
2023-02-11T13:31:33.495Z,99273.47
2023-02-11T13:34:01.118Z,99337.88
2023-02-11T13:36:32.984Z,99324.81
2023-02-11T13:39:19.586Z,99303.66
2023-02-11T13:41:52.478Z,99261.16
2023-02-11T13:44:23.866Z,99311.94
2023-02-11T13:46:54.364Z,99298.38
2023-02-11T13:49:29.838Z,99295.00
2023-02-11T13:51:57.903Z,99253.91
2023-02-11T13:54:34.856Z,99268.84
2023-02-11T13:57:20.229Z,99277.91
2023-02-11T13:59:48.602Z,99270.97
2023-02-11T14:02:55.718Z,99256.38
2023-02-11T14:05:45.336Z,99239.78
2023-02-11T14:08:30.776Z,99249.22
2023-02-11T14:11:03.339Z,99213.81
2023-02-11T14:13:57.108Z,99213.38
2023-02-11T14:16:37.610Z,99166.13
2023-02-11T14:19:06.552Z,99219.56
2023-02-11T14:21:42.617Z,99169.22
2023-02-11T14:24:13.175Z,99178.34
2023-02-11T14:26:46.167Z,99188.44
2023-02-11T14:29:34.432Z,99179.13
2023-02-11T14:32:06.183Z,99168.50
2023-02-11T14:34:53.739Z,99173.38
2023-02-11T14:37:20.671Z,99175.06
2023-02-11T14:40:02.885Z,99144.97
2023-02-11T14:42:31.367Z,99124.56
2023-02-11T14:45:05.278Z,99143.16
2023-02-11T14:47:45.785Z,99122.38
2023-02-11T14:50:29.154Z,99117.34
2023-02-11T14:52:57.876Z,99111.75
2023-02-11T14:55:38.257Z,99110.75
2023-02-11T14:58:15.467Z,99116.03
2023-02-11T15:01:01.824Z,99102.13
2023-02-11T15:03:37.238Z,99084.28
2023-02-11T15:06:20.930Z,99088.03
2023-02-11T15:09:01.048Z,99086.19
2023-02-11T15:11:32.377Z,99085.59
2023-02-11T15:14:08.240Z,99086.19
2023-02-11T15:16:40.684Z,99068.28
2023-02-11T15:19:08.076Z,99071.06
2023-02-11T15:21:36.442Z,99040.75
2023-02-11T15:24:20.639Z,99058.38
2023-02-11T15:26:58.497Z,99060.00
2023-02-11T15:29:27.077Z,99019.84
2023-02-11T15:32:10.492Z,99027.22
2023-02-11T15:34:37.776Z,99047.63
2023-02-11T15:37:05.521Z,99041.50
2023-02-11T15:39:37.493Z,99024.84
2023-02-11T15:42:51.713Z,99029.44
2023-02-11T15:45:29.045Z,98955.34
2023-02-11T15:48:23.503Z,99039.47
2023-02-11T15:50:54.278Z,99028.09
2023-02-11T15:53:33.348Z,98980.94
2023-02-11T15:56:26.737Z,99015.31
2023-02-11T15:58:57.531Z,99001.59
2023-02-11T16:01:37.088Z,99008.03
2023-02-11T16:04:05.851Z,98979.69
2023-02-11T16:06:40.008Z,98998.00
2023-02-11T16:09:12.725Z,98995.19
2023-02-11T16:11:48.947Z,98981.72
2023-02-11T16:14:27.712Z,98999.06
2023-02-11T16:16:59.924Z,99001.72
2023-02-11T16:19:28.745Z,98807.44
2023-02-11T16:21:58.558Z,98976.47
2023-02-11T16:24:34.337Z,98972.69
2023-02-11T16:27:03.521Z,98945.66
2023-02-11T16:29:33.296Z,98958.91
2023-02-11T16:32:15.751Z,98958.13
2023-02-11T16:34:42.841Z,98949.78
2023-02-11T16:37:09.968Z,98939.47
2023-02-11T16:39:37.729Z,98959.78
2023-02-11T16:42:07.684Z,98937.66
2023-02-11T16:44:35.983Z,98919.19
2023-02-11T16:47:04.617Z,98895.75
2023-02-11T16:49:36.905Z,98917.97
2023-02-11T16:52:08.051Z,98920.59
2023-02-11T16:54:35.205Z,98907.75
2023-02-11T16:57:06.164Z,98880.75
2023-02-11T16:59:33.161Z,98905.09
2023-02-11T17:02:00.226Z,98884.38
2023-02-11T17:04:30.198Z,98885.25
2023-02-11T17:06:58.677Z,98873.25
2023-02-11T17:09:30.621Z,98865.56
2023-02-11T17:11:58.097Z,98871.44
2023-02-11T17:14:25.245Z,98883.25
2023-02-11T17:16:52.318Z,98880.63
2023-02-11T17:19:21.232Z,98852.59
2023-02-11T17:21:50.628Z,98855.25
2023-02-11T17:24:18.662Z,98846.41
2023-02-11T17:26:46.649Z,98848.97
2023-02-11T17:29:22.387Z,98829.34
2023-02-11T17:31:52.024Z,98835.81
2023-02-11T17:34:20.315Z,98822.41
2023-02-11T17:36:47.327Z,98821.47
2023-02-11T17:39:14.403Z,98806.19
2023-02-11T17:41:41.697Z,98834.00
2023-02-11T17:44:12.566Z,98799.50
2023-02-11T17:46:39.780Z,98809.38
2023-02-11T17:49:06.878Z,98830.38
2023-02-11T17:51:36.834Z,98806.59
2023-02-11T17:54:08.171Z,98790.31
2023-02-11T17:56:36.903Z,98786.25
2023-02-11T17:59:05.185Z,98795.31
2023-02-11T18:01:33.949Z,98783.31
2023-02-11T18:04:01.813Z,98783.09
2023-02-11T18:06:29.325Z,98756.22
2023-02-11T18:08:58.039Z,98773.91
2023-02-11T18:11:26.074Z,98715.19
2023-02-11T18:13:54.684Z,98763.06
2023-02-11T18:16:23.057Z,98768.44
2023-02-11T18:18:50.970Z,98729.75
2023-02-11T18:21:20.601Z,98721.97
2023-02-11T18:23:49.061Z,98729.88
2023-02-11T18:26:18.314Z,98737.91
2023-02-11T18:28:46.072Z,98717.31
2023-02-11T18:31:14.290Z,98699.03
2023-02-11T18:33:42.328Z,98701.72
2023-02-11T18:36:12.364Z,98697.59
2023-02-11T18:38:40.071Z,98689.31
2023-02-11T18:41:08.359Z,98695.81
2023-02-11T18:43:36.276Z,98693.47
2023-02-11T18:46:08.773Z,98684.69
2023-02-11T18:48:36.190Z,98662.94
2023-02-11T18:51:11.978Z,98677.09
2023-02-11T18:53:39.561Z,98676.22
2023-02-11T18:56:17.362Z,98661.56
2023-02-11T18:58:44.817Z,98673.63
2023-02-11T19:01:13.280Z,98649.66
2023-02-11T19:03:40.390Z,98635.91
2023-02-11T19:06:08.064Z,98674.25
2023-02-11T19:08:35.143Z,98666.38
2023-02-11T19:11:04.860Z,98660.94
2023-02-11T19:13:31.891Z,98640.19
2023-02-11T19:15:59.203Z,98652.13
2023-02-11T19:18:26.395Z,98654.19
2023-02-11T19:20:53.377Z,98655.00
2023-02-11T19:23:20.419Z,98660.44
2023-02-11T19:25:48.913Z,98659.88
2023-02-11T19:28:16.251Z,98645.53
2023-02-11T19:30:43.350Z,98628.09
2023-02-11T19:33:11.055Z,98598.09
2023-02-11T19:35:38.132Z,98627.66
2023-02-11T19:38:05.806Z,98627.75
2023-02-11T19:40:33.205Z,98632.00
2023-02-11T19:43:00.272Z,98621.22
2023-02-11T19:45:27.329Z,98571.72
2023-02-11T19:47:57.588Z,98613.38
2023-02-11T19:50:25.498Z,98616.16
2023-02-11T19:52:52.516Z,98610.47
2023-02-11T19:55:19.620Z,98616.56
2023-02-11T19:57:46.721Z,98608.09
2023-02-11T20:00:14.330Z,98566.69
2023-02-11T20:02:41.565Z,98588.56
2023-02-11T20:05:08.853Z,98597.25
2023-02-11T20:07:37.141Z,98591.28
2023-02-11T20:10:04.487Z,98593.06
2023-02-11T20:12:31.581Z,98583.84
2023-02-11T20:14:58.552Z,98590.78
2023-02-11T20:17:25.615Z,98586.47
2023-02-11T20:19:52.782Z,98488.75
2023-02-11T20:22:19.742Z,98561.25
2023-02-11T20:24:46.750Z,98547.63
2023-02-11T20:27:13.845Z,98563.50
2023-02-11T20:29:41.491Z,98566.94
2023-02-11T20:32:08.730Z,98566.25
2023-02-11T20:34:35.761Z,98534.50
2023-02-11T20:37:04.228Z,98554.47
2023-02-11T20:39:31.225Z,98503.31
2023-02-11T20:41:58.541Z,98555.44
2023-02-11T20:44:25.599Z,98549.47
2023-02-11T20:46:54.582Z,98551.09
2023-02-11T20:49:24.377Z,98537.41
2023-02-11T20:51:53.969Z,98547.19
2023-02-11T20:54:23.385Z,98522.25
2023-02-11T20:56:51.573Z,98512.00
2023-02-11T20:59:19.701Z,98539.94
2023-02-11T21:01:53.646Z,98543.47
2023-02-11T21:04:29.593Z,98526.00
2023-02-11T21:06:59.831Z,98536.56
2023-02-11T21:09:29.978Z,98552.03
2023-02-11T21:11:57.179Z,98541.78
2023-02-11T21:14:25.018Z,98502.75
2023-02-11T21:16:52.564Z,98538.25
2023-02-11T21:19:20.428Z,98542.75
2023-02-11T21:21:47.708Z,98543.63
2023-02-11T21:24:15.323Z,98543.41
2023-02-11T21:26:42.570Z,98533.28
2023-02-11T21:29:10.466Z,98527.28
2023-02-11T21:31:38.241Z,98498.56
2023-02-11T21:34:06.445Z,98540.25
2023-02-11T21:36:34.055Z,98518.31
2023-02-11T21:39:01.992Z,98528.13
2023-02-11T21:41:29.595Z,98531.56
2023-02-11T21:43:56.944Z,98525.75
2023-02-11T21:46:24.580Z,98520.69
2023-02-11T21:48:51.733Z,98487.13
2023-02-11T21:51:22.091Z,98528.56
2023-02-11T21:53:56.859Z,98526.03
2023-02-11T21:56:26.488Z,98511.53
2023-02-11T21:58:55.391Z,98518.34
2023-02-11T22:01:26.308Z,98505.53
2023-02-11T22:03:53.666Z,98509.06
2023-02-11T22:06:26.619Z,98470.03
2023-02-11T22:08:54.695Z,98511.72
2023-02-11T22:11:22.272Z,98487.41
2023-02-11T22:13:54.154Z,98508.28
2023-02-11T22:16:21.401Z,98486.50
2023-02-11T22:18:48.661Z,98507.47
2023-02-11T22:21:18.808Z,98473.81
2023-02-11T22:23:46.984Z,98502.56
2023-02-11T22:26:17.749Z,98499.13
2023-02-11T22:28:45.078Z,98487.09
2023-02-11T22:31:18.149Z,98509.69
2023-02-11T22:33:45.664Z,98490.69
2023-02-11T22:36:25.023Z,98493.44
2023-02-11T22:38:53.150Z,98497.81
2023-02-11T22:41:21.201Z,98477.00
2023-02-11T22:43:48.988Z,98495.88
2023-02-11T22:46:18.323Z,98492.34
2023-02-11T22:48:46.241Z,98498.59
2023-02-11T22:51:16.516Z,98506.41
2023-02-11T22:53:46.300Z,98505.59
2023-02-11T22:56:15.645Z,98477.28
2023-02-11T22:58:43.288Z,98509.41
2023-02-11T23:01:10.546Z,98524.03
2023-02-11T23:03:37.593Z,98512.09
2023-02-11T23:06:05.219Z,98512.94
2023-02-11T23:08:33.806Z,98493.06
2023-02-11T23:11:08.950Z,98523.44
2023-02-11T23:13:38.245Z,98513.88
2023-02-11T23:16:08.203Z,98492.78
2023-02-11T23:18:37.173Z,98505.63
2023-02-11T23:21:08.222Z,98516.91
2023-02-11T23:23:36.624Z,98491.78
2023-02-11T23:26:05.240Z,98516.91
2023-02-11T23:28:32.323Z,98488.34
2023-02-11T23:30:59.399Z,98505.59
2023-02-11T23:33:26.429Z,98532.34
2023-02-11T23:35:53.830Z,98517.63
2023-02-11T23:38:21.016Z,98540.81
2023-02-11T23:40:47.966Z,98491.31
2023-02-11T23:43:15.056Z,98478.13
2023-02-11T23:45:42.158Z,98544.31
2023-02-11T23:48:09.310Z,98550.13
2023-02-11T23:50:39.713Z,98488.47
2023-02-11T23:53:06.708Z,98553.59
2023-02-11T23:55:39.991Z,98509.53
2023-02-11T23:58:07.573Z,98562.38
